Search for airport 
image banner adimage banner adimage banner ad
image banner ad

CCD3 - Woodstock

Located in , Canada

ICAO - CCD3, IATA -

Data provided by Airmate  

General information

Coordinates: N46°9'0" W67°33'0"
Elevation is 481 feet MSL.
Magnetic variation is -17.25° East
View others Airports in New Brunswick

Operational data

Special qualification required
Current time UTC:
Current local time:
Weather at : KHUL - Houlton Intl ( 19 km )
METAR: KHUL 191153Z AUTO 25007KT 10SM CLR 06/02 A2959 RMK AO2 SLP024 70003 T00610022 10061 20056 53003
TAF: KHUL 191120Z 1912/2012 27008KT P6SM BKN040 FM191400 28010KT P6SM BKN027 FM192000 28009KT P6SM OVC019 FM200300 28006KT P6SM VCSH OVC015 FM200900 29005KT P6SM OVC010
View NOTAMs / SUP AIP / TFR affecting this airport [VIEW]
Communications frequencies: [VIEW]

Runways:

RWY identifierQFULength (ft)Width (ft)SurfaceLDA (ft)
13300075OTHER
31300075OTHER

Airport contact information

Address: Canada

Satellite view of CCD3